Time,TemperatureF,DewpointF,PressureIn,WindDirection,WindDirectionDegrees,WindSpeedMPH,WindSpeedGustMPH,Humidity,HourlyPrecipIn,Conditions,Clouds,dailyrainin,SoftwareType,DateUTC
2013-01-12 00:03:00,52.9,48.2,29.84,SSE,166,0.0,5.0,84,0.00,,CLR,0.00,VWS V14.00,2013-01-12 06:03:00,
2013-01-12 00:08:00,52.8,48.1,29.84,SSE,166,1.0,3.0,84,0.00,,CLR,0.00,VWS V14.00,2013-01-12 06:08:00,
2013-01-12 00:13:00,52.5,48.1,29.84,SSE,166,0.0,1.0,85,0.00,,CLR,0.00,VWS V14.00,2013-01-12 06:13:00,
2013-01-12 00:23:00,51.7,47.3,29.85,SSE,166,0.0,0.0,85,0.00,,CLR,0.00,VWS V14.00,2013-01-12 06:23:00,
2013-01-12 00:28:00,51.6,47.6,29.85,SSE,166,0.0,0.0,86,0.00,,CLR,0.00,VWS V14.00,2013-01-12 06:28:00,
2013-01-12 00:33:00,51.6,47.6,29.85,SSE,166,0.0,0.0,86,0.00,,CLR,0.00,VWS V14.00,2013-01-12 06:33:00,
2013-01-12 00:38:00,51.4,47.4,29.85,SSE,166,0.0,0.0,86,0.00,,CLR,0.00,VWS V14.00,2013-01-12 06:38:00,
2013-01-12 00:43:00,51.4,47.4,29.85,SSE,166,0.0,0.0,86,0.00,,CLR,0.00,VWS V14.00,2013-01-12 06:43:00,
2013-01-12 00:48:00,51.4,47.7,29.85,SSE,166,0.0,2.0,87,0.00,,CLR,0.00,VWS V14.00,2013-01-12 06:48:00,
2013-01-12 00:58:00,52.2,48.5,29.85,South,180,0.0,4.0,87,0.00,,CLR,0.00,VWS V14.00,2013-01-12 06:58:00,
2013-01-12 01:03:00,52.5,48.8,29.86,South,175,2.0,6.0,87,0.00,,CLR,0.00,VWS V14.00,2013-01-12 07:03:00,
2013-01-12 01:13:00,53.3,49.8,29.86,South,173,5.0,7.0,88,0.00,,CLR,0.00,VWS V14.00,2013-01-12 07:13:00,
2013-01-12 01:18:00,53.9,50.1,29.86,South,175,1.0,7.0,87,0.00,,CLR,0.00,VWS V14.00,2013-01-12 07:18:00,
2013-01-12 01:23:00,54.2,50.4,29.86,South,178,1.0,7.0,87,0.00,,CLR,0.00,VWS V14.00,2013-01-12 07:23:00,
2013-01-12 01:33:00,55.1,51.6,29.86,SSE,166,5.0,9.0,88,0.00,,CLR,0.00,VWS V14.00,2013-01-12 07:33:00,
2013-01-12 01:38:00,55.6,52.4,29.86,SSE,162,3.0,9.0,89,0.00,,CLR,0.00,VWS V14.00,2013-01-12 07:38:00,
2013-01-12 01:43:00,55.9,52.7,29.86,SSE,149,7.0,9.0,89,0.00,,CLR,0.00,VWS V14.00,2013-01-12 07:43:00,
2013-01-12 01:53:00,56.5,53.3,29.86,SSE,163,9.0,9.0,89,0.00,,CLR,0.00,VWS V14.00,2013-01-12 07:53:00,
2013-01-12 02:03:00,56.6,53.7,29.86,SSE,167,8.0,8.0,90,0.00,,CLR,0.00,VWS V14.00,2013-01-12 08:03:00,
2013-01-12 02:08:00,56.7,53.8,29.86,South,176,5.0,8.0,90,0.00,,CLR,0.00,VWS V14.00,2013-01-12 08:08:00,
2013-01-12 02:13:00,56.6,53.7,29.86,SSE,155,7.0,9.0,90,0.00,,CLR,0.00,VWS V14.00,2013-01-12 08:13:00,
2013-01-12 02:18:00,56.6,53.7,29.87,SSE,148,6.0,9.0,90,0.00,,CLR,0.00,VWS V14.00,2013-01-12 08:18:00,
2013-01-12 02:23:00,56.7,53.8,29.87,SSE,157,5.0,10.0,90,0.00,,CLR,0.00,VWS V14.00,2013-01-12 08:23:00,
2013-01-12 02:33:00,56.9,54.3,29.86,SSE,149,6.0,11.0,91,0.00,,CLR,0.00,VWS V14.00,2013-01-12 08:33:00,
2013-01-12 02:38:00,56.9,54.3,29.86,SE,144,7.0,11.0,91,0.00,,CLR,0.00,VWS V14.00,2013-01-12 08:38:00,
2013-01-12 02:43:00,57.2,54.6,29.86,SSE,161,4.0,9.0,91,0.00,,CLR,0.00,VWS V14.00,2013-01-12 08:43:00,
2013-01-12 02:53:00,57.3,54.7,29.86,SSE,168,8.0,8.0,91,0.00,,CLR,0.00,VWS V14.00,2013-01-12 08:53:00,
2013-01-12 02:58:00,57.3,55.0,29.86,SSE,159,5.0,10.0,92,0.00,,CLR,0.00,VWS V14.00,2013-01-12 08:58:00,
2013-01-12 03:03:00,57.5,55.2,29.85,South,175,5.0,9.0,92,0.00,,CLR,0.00,VWS V14.00,2013-01-12 09:03:00,
2013-01-12 03:08:00,57.6,55.3,29.85,South,174,3.0,7.0,92,0.00,,CLR,0.00,VWS V14.00,2013-01-12 09:08:00,
2013-01-12 03:13:00,57.6,55.3,29.85,SSE,167,6.0,8.0,92,0.00,,CLR,0.00,VWS V14.00,2013-01-12 09:13:00,
2013-01-12 03:18:00,57.6,55.3,29.85,South,176,3.0,6.0,92,0.00,,CLR,0.00,VWS V14.00,2013-01-12 09:18:00,
2013-01-12 03:23:00,57.8,55.5,29.85,SSE,167,2.0,6.0,92,0.00,,CLR,0.00,VWS V14.00,2013-01-12 09:23:00,
2013-01-12 03:33:00,58.0,55.7,29.85,SSE,167,5.0,7.0,92,0.00,,CLR,0.00,VWS V14.00,2013-01-12 09:33:00,
2013-01-12 03:38:00,58.3,56.0,29.85,SSE,166,2.0,6.0,92,0.00,,CLR,0.00,VWS V14.00,2013-01-12 09:38:00,
2013-01-12 03:43:00,58.7,56.4,29.85,SSW,194,4.0,6.0,92,0.00,,CLR,0.00,VWS V14.00,2013-01-12 09:43:00,
2013-01-12 03:48:00,59.3,57.3,29.85,SW,228,1.0,4.0,93,0.00,,CLR,0.00,VWS V14.00,2013-01-12 09:48:00,
2013-01-12 03:58:00,60.5,58.5,29.85,South,179,0.0,9.0,93,0.00,,CLR,0.00,VWS V14.00,2013-01-12 09:58:00,
2013-01-12 04:08:00,60.4,58.1,29.85,SSE,164,7.0,7.0,92,0.00,,CLR,0.00,VWS V14.00,2013-01-12 10:08:00,
2013-01-12 04:13:00,60.2,57.9,29.85,SSE,163,4.0,7.0,92,0.00,,CLR,0.00,VWS V14.00,2013-01-12 10:13:00,
2013-01-12 04:18:00,60.1,57.8,29.85,SSE,164,3.0,7.0,92,0.00,,CLR,0.00,VWS V14.00,2013-01-12 10:18:00,
2013-01-12 04:23:00,59.8,57.5,29.85,SSE,164,0.0,3.0,92,0.00,,CLR,0.00,VWS V14.00,2013-01-12 10:23:00,
2013-01-12 04:28:00,59.3,57.0,29.85,SSE,164,0.0,3.0,92,0.00,,CLR,0.00,VWS V14.00,2013-01-12 10:28:00,
2013-01-12 04:33:00,59.2,56.9,29.85,SSE,164,1.0,2.0,92,0.00,,CLR,0.00,VWS V14.00,2013-01-12 10:33:00,
2013-01-12 04:38:00,59.2,56.9,29.85,SSE,163,1.0,3.0,92,0.00,,CLR,0.00,VWS V14.00,2013-01-12 10:38:00,
2013-01-12 04:48:00,59.0,56.7,29.84,SSE,153,1.0,4.0,92,0.00,,,0.00,VWS V14.00,2013-01-12 10:48:00,
2013-01-12 04:58:00,59.0,57.0,29.84,SSE,155,1.0,5.0,93,0.00,,,0.00,VWS V14.00,2013-01-12 10:58:00,
2013-01-12 05:08:00,59.2,57.2,29.84,SSE,167,2.0,5.0,93,0.00,,,0.00,VWS V14.00,2013-01-12 11:08:00,
2013-01-12 05:18:00,58.9,56.9,29.84,SSE,157,1.0,2.0,93,0.00,,,0.00,VWS V14.00,2013-01-12 11:18:00,
2013-01-12 05:28:00,58.4,56.4,29.84,SSE,153,1.0,3.0,93,0.00,,,0.00,VWS V14.00,2013-01-12 11:28:00,
2013-01-12 05:33:00,58.4,56.4,29.85,SSE,153,2.0,3.0,93,0.00,,,0.00,VWS V14.00,2013-01-12 11:33:00,
2013-01-12 05:38:00,58.6,56.6,29.85,SSE,153,0.0,3.0,93,0.00,,,0.00,VWS V14.00,2013-01-12 11:38:00,
2013-01-12 05:43:00,58.7,56.7,29.85,SSE,153,1.0,4.0,93,0.00,,,0.00,VWS V14.00,2013-01-12 11:43:00,
2013-01-12 05:48:00,58.9,56.9,29.85,SSE,148,3.0,5.0,93,0.00,,,0.00,VWS V14.00,2013-01-12 11:48:00,
2013-01-12 05:58:00,59.2,57.2,29.85,SSE,150,1.0,4.0,93,0.00,,,0.00,VWS V14.00,2013-01-12 11:58:00,
2013-01-12 06:03:00,59.0,57.0,29.85,SSE,150,1.0,3.0,93,0.00,,,0.00,VWS V14.00,2013-01-12 12:03:00,
2013-01-12 06:13:00,58.9,56.9,29.85,SSE,148,0.0,4.0,93,0.00,,,0.00,VWS V14.00,2013-01-12 12:13:00,
2013-01-12 06:18:00,58.9,56.9,29.85,SE,146,0.0,3.0,93,0.00,,,0.00,VWS V14.00,2013-01-12 12:18:00,
2013-01-12 06:23:00,58.9,56.9,29.85,SE,146,1.0,4.0,93,0.00,,,0.00,VWS V14.00,2013-01-12 12:23:00,
2013-01-12 06:33:00,58.9,56.9,29.86,SE,146,1.0,5.0,93,0.00,,,0.00,VWS V14.00,2013-01-12 12:33:00,
2013-01-12 06:38:00,58.9,56.9,29.86,SSE,147,0.0,4.0,93,0.00,,,0.00,VWS V14.00,2013-01-12 12:38:00,
2013-01-12 06:48:00,59.2,57.2,29.86,SSE,147,2.0,3.0,93,0.00,,,0.00,VWS V14.00,2013-01-12 12:48:00,
2013-01-12 06:53:00,59.3,57.3,29.86,SE,146,3.0,5.0,93,0.00,,,0.00,VWS V14.00,2013-01-12 12:53:00,
2013-01-12 07:03:00,59.3,57.3,29.86,SSE,150,1.0,4.0,93,0.00,,,0.00,VWS V14.00,2013-01-12 13:03:00,
2013-01-12 07:08:00,59.5,57.8,29.86,SSE,149,1.0,4.0,94,0.00,,,0.00,VWS V14.00,2013-01-12 13:08:00,
2013-01-12 07:13:00,59.6,57.9,29.86,SSE,152,1.0,5.0,94,0.00,,,0.00,VWS V14.00,2013-01-12 13:13:00,
2013-01-12 07:23:00,60.1,58.4,29.87,SSE,155,2.0,5.0,94,0.00,,,0.00,VWS V14.00,2013-01-12 13:23:00,
2013-01-12 07:28:00,60.1,58.4,29.87,SSE,156,0.0,4.0,94,0.00,,,0.00,VWS V14.00,2013-01-12 13:28:00,
2013-01-12 07:33:00,60.1,58.4,29.86,SSE,150,0.0,3.0,94,0.00,,,0.00,VWS V14.00,2013-01-12 13:33:00,
2013-01-12 07:38:00,60.1,58.4,29.86,SSE,150,0.0,0.0,94,0.00,,,0.00,VWS V14.00,2013-01-12 13:38:00,
2013-01-12 07:43:00,59.9,58.2,29.86,SSE,150,1.0,3.0,94,0.00,,,0.00,VWS V14.00,2013-01-12 13:43:00,
2013-01-12 07:53:00,60.1,58.4,29.86,SSE,150,1.0,4.0,94,0.00,,,0.00,VWS V14.00,2013-01-12 13:53:00,
2013-01-12 08:03:00,60.2,58.5,29.87,SSE,150,0.0,1.0,94,0.00,,,0.00,VWS V14.00,2013-01-12 14:03:00,
2013-01-12 08:13:00,60.2,58.5,29.87,SSE,150,0.0,2.0,94,0.00,,,0.00,VWS V14.00,2013-01-12 14:13:00,
2013-01-12 08:23:00,60.4,58.7,29.87,SSE,150,0.0,0.0,94,0.00,,,0.00,VWS V14.00,2013-01-12 14:23:00,
2013-01-12 08:28:00,60.4,58.7,29.87,SSE,150,0.0,0.0,94,0.00,,,0.00,VWS V14.00,2013-01-12 14:28:00,
2013-01-12 08:33:00,60.5,58.8,29.87,SSE,150,0.0,0.0,94,0.00,,,0.00,VWS V14.00,2013-01-12 14:33:00,
2013-01-12 08:38:00,60.7,59.0,29.87,SSE,150,0.0,0.0,94,0.00,,,0.00,VWS V14.00,2013-01-12 14:38:00,
2013-01-12 08:43:00,60.7,59.0,29.87,SSE,150,0.0,0.0,94,0.00,,,0.00,VWS V14.00,2013-01-12 14:43:00,
2013-01-12 08:48:00,60.9,59.2,29.87,SSE,150,0.0,0.0,94,0.00,,,0.00,VWS V14.00,2013-01-12 14:48:00,
2013-01-12 08:58:00,60.9,59.2,29.87,SSE,150,0.0,0.0,94,0.00,,,0.00,VWS V14.00,2013-01-12 14:58:00,
2013-01-12 09:03:00,60.9,59.2,29.87,SSE,150,0.0,0.0,94,0.00,,,0.00,VWS V14.00,2013-01-12 15:03:00,
2013-01-12 09:08:00,61.0,59.3,29.87,SSE,150,0.0,0.0,94,0.00,,,0.00,VWS V14.00,2013-01-12 15:08:00,
2013-01-12 09:18:00,61.2,59.5,29.87,SSE,150,0.0,3.0,94,0.00,,,0.00,VWS V14.00,2013-01-12 15:18:00,
2013-01-12 09:23:00,61.3,59.6,29.87,SSE,150,0.0,3.0,94,0.00,,,0.00,VWS V14.00,2013-01-12 15:23:00,
2013-01-12 09:28:00,61.5,59.8,29.87,SSE,150,0.0,3.0,94,0.00,,,0.00,VWS V14.00,2013-01-12 15:28:00,
2013-01-12 09:33:00,61.3,59.6,29.85,SSE,150,3.0,3.0,94,0.00,,,0.00,VWS V14.00,2013-01-12 15:33:00,
2013-01-12 09:38:00,61.3,59.6,29.85,SSE,150,2.0,4.0,94,0.00,,,0.00,VWS V14.00,2013-01-12 15:38:00,
2013-01-12 09:43:00,61.3,59.6,29.85,SSE,150,2.0,3.0,94,0.00,,,0.00,VWS V14.00,2013-01-12 15:43:00,
2013-01-12 09:53:00,62.0,60.3,29.85,SSE,150,0.0,3.0,94,0.00,,,0.00,VWS V14.00,2013-01-12 15:53:00,
2013-01-12 09:58:00,62.3,60.6,29.85,SSE,150,2.0,4.0,94,0.00,,,0.00,VWS V14.00,2013-01-12 15:58:00,
2013-01-12 10:03:00,62.4,60.7,29.86,SE,141,1.0,5.0,94,0.00,,,0.00,VWS V14.00,2013-01-12 16:03:00,
2013-01-12 10:13:00,62.7,61.0,29.86,SE,146,3.0,4.0,94,0.00,,,0.00,VWS V14.00,2013-01-12 16:13:00,
2013-01-12 10:23:00,62.7,61.0,29.87,SE,146,0.0,2.0,94,0.00,,,0.00,VWS V14.00,2013-01-12 16:23:00,
2013-01-12 10:28:00,62.9,61.2,29.87,SE,146,0.0,3.0,94,0.00,,,0.00,VWS V14.00,2013-01-12 16:28:00,
2013-01-12 10:33:00,63.1,61.3,29.86,SE,146,1.0,3.0,94,0.00,,,0.00,VWS V14.00,2013-01-12 16:33:00,
2013-01-12 10:43:00,63.2,61.5,29.86,SE,146,0.0,0.0,94,0.00,,,0.00,VWS V14.00,2013-01-12 16:43:00,
2013-01-12 10:53:00,63.4,61.7,29.84,SE,146,0.0,0.0,94,0.00,,,0.00,VWS V14.00,2013-01-12 16:53:00,
2013-01-12 10:58:00,63.4,61.7,29.84,SE,146,0.0,0.0,94,0.00,,,0.00,VWS V14.00,2013-01-12 16:58:00,
2013-01-12 11:03:00,63.5,61.8,29.83,SE,146,0.0,0.0,94,0.00,,,0.00,VWS V14.00,2013-01-12 17:03:00,
2013-01-12 11:08:00,63.7,62.0,29.83,SE,146,0.0,0.0,94,0.00,,,0.00,VWS V14.00,2013-01-12 17:08:00,
2013-01-12 11:13:00,63.7,62.0,29.83,SE,146,0.0,0.0,94,0.01,,,0.01,VWS V14.00,2013-01-12 17:13:00,
2013-01-12 11:18:00,63.7,62.0,29.82,SE,146,0.0,0.0,94,0.01,,,0.01,VWS V14.00,2013-01-12 17:18:00,
2013-01-12 11:23:00,63.7,62.0,29.82,SE,146,0.0,2.0,94,0.01,,,0.01,VWS V14.00,2013-01-12 17:23:00,
2013-01-12 11:28:00,63.5,61.8,29.82,SE,146,1.0,2.0,94,0.02,,,0.02,VWS V14.00,2013-01-12 17:28:00,
2013-01-12 11:38:00,63.4,61.7,29.80,SE,146,3.0,4.0,94,0.02,,,0.02,VWS V14.00,2013-01-12 17:38:00,
2013-01-12 11:43:00,63.2,61.5,29.80,SE,146,0.0,4.0,94,0.03,,,0.03,VWS V14.00,2013-01-12 17:43:00,
2013-01-12 11:48:00,63.2,61.5,29.79,SE,146,0.0,3.0,94,0.03,,,0.03,VWS V14.00,2013-01-12 17:48:00,
2013-01-12 11:53:00,63.2,61.5,29.79,SE,146,2.0,3.0,94,0.03,,,0.03,VWS V14.00,2013-01-12 17:53:00,
2013-01-12 11:58:00,63.1,61.3,29.79,ENE,72,2.0,5.0,94,0.03,,,0.03,VWS V14.00,2013-01-12 17:58:00,
2013-01-12 12:08:00,63.1,61.3,29.77,ENE,72,2.0,3.0,94,0.04,,-RA,0.04,VWS V14.00,2013-01-12 18:08:00,
2013-01-12 12:18:00,63.1,61.3,29.76,ENE,72,3.0,5.0,94,0.06,,-RA,0.07,VWS V14.00,2013-01-12 18:18:00,
2013-01-12 12:28:00,63.2,61.5,29.76,East,82,1.0,6.0,94,0.09,,-RA,0.10,VWS V14.00,2013-01-12 18:28:00,
2013-01-12 12:33:00,63.4,61.7,29.76,ENE,76,2.0,5.0,94,0.09,,-RA,0.11,VWS V14.00,2013-01-12 18:33:00,
2013-01-12 12:38:00,63.5,61.8,29.76,ENE,76,1.0,5.0,94,0.10,,-RA,0.12,VWS V14.00,2013-01-12 18:38:00,
2013-01-12 12:43:00,63.7,62.0,29.76,ENE,76,2.0,5.0,94,0.12,,-RA,0.14,VWS V14.00,2013-01-12 18:43:00,
2013-01-12 12:53:00,63.7,62.0,29.75,ENE,71,2.0,4.0,94,0.11,,-RA,0.14,VWS V14.00,2013-01-12 18:53:00,
2013-01-12 12:58:00,63.5,61.8,29.75,ENE,71,0.0,3.0,94,0.13,,-RA,0.16,VWS V14.00,2013-01-12 18:58:00,
2013-01-12 13:03:00,63.5,61.8,29.73,ENE,71,2.0,4.0,94,0.15,,-RA,0.18,VWS V14.00,2013-01-12 19:03:00,
2013-01-12 13:08:00,63.5,61.8,29.73,ENE,71,2.0,3.0,94,0.18,,-RA,0.21,VWS V14.00,2013-01-12 19:08:00,
2013-01-12 13:13:00,63.7,62.0,29.73,ENE,71,3.0,4.0,94,0.25,,-RA,0.29,VWS V14.00,2013-01-12 19:13:00,
2013-01-12 13:18:00,63.9,62.1,29.73,East,86,6.0,6.0,94,0.26,,-RA,0.30,VWS V14.00,2013-01-12 19:18:00,
2013-01-12 13:23:00,63.9,62.1,29.73,East,96,3.0,8.0,94,0.27,,-RA,0.34,VWS V14.00,2013-01-12 19:23:00,
2013-01-12 13:33:00,64.3,62.5,29.74,SW,232,1.0,4.0,94,0.30,,RA,0.40,VWS V14.00,2013-01-12 19:33:00,
2013-01-12 13:38:00,64.2,62.4,29.74,South,185,3.0,4.0,94,0.37,,RA,0.48,VWS V14.00,2013-01-12 19:38:00,
2013-01-12 13:43:00,63.9,62.1,29.74,SSE,163,4.0,4.0,94,0.40,,RA,0.52,VWS V14.00,2013-01-12 19:43:00,
2013-01-12 13:48:00,63.5,61.8,29.71,East,93,7.0,12.0,94,0.42,,RA,0.56,VWS V14.00,2013-01-12 19:48:00,
2013-01-12 13:53:00,63.4,61.7,29.71,SE,125,3.0,8.0,94,0.42,,RA,0.56,VWS V14.00,2013-01-12 19:53:00,
2013-01-12 14:03:00,63.2,61.5,29.73,SW,231,0.0,4.0,94,0.40,, +RA,0.56,VWS V14.00,2013-01-12 20:03:00,
2013-01-12 14:13:00,63.2,61.5,29.73,SW,234,0.0,0.0,94,0.39,, +RA,0.60,VWS V14.00,2013-01-12 20:13:00,
2013-01-12 14:18:00,63.2,61.5,29.72,SE,134,4.0,4.0,94,0.31,, +RA,0.60,VWS V14.00,2013-01-12 20:18:00,
2013-01-12 14:28:00,63.4,61.7,29.72,SE,138,5.0,6.0,94,0.26,, +RA,0.60,VWS V14.00,2013-01-12 20:28:00,
2013-01-12 14:38:00,63.9,62.1,29.71,ESE,113,5.0,8.0,94,0.20,,RA,0.60,VWS V14.00,2013-01-12 20:38:00,
2013-01-12 14:43:00,64.2,62.4,29.71,SSE,148,9.0,9.0,94,0.12,,RA,0.60,VWS V14.00,2013-01-12 20:43:00,
2013-01-12 14:53:00,65.2,63.4,29.71,SE,138,7.0,12.0,94,0.04,,RA,0.60,VWS V14.00,2013-01-12 20:53:00,
2013-01-12 14:58:00,65.6,63.8,29.71,SSE,165,8.0,13.0,94,0.04,,RA,0.60,VWS V14.00,2013-01-12 20:58:00,
2013-01-12 15:03:00,66.1,64.3,29.70,SSE,154,10.0,15.0,94,0.04,, +RA,0.60,VWS V14.00,2013-01-12 21:03:00,
2013-01-12 15:08:00,66.4,64.6,29.70,SSE,152,13.0,18.0,94,0.04,, +RA,0.60,VWS V14.00,2013-01-12 21:08:00,
2013-01-12 15:13:00,66.6,64.8,29.70,South,184,8.0,17.0,94,0.01,, +RA,0.60,VWS V14.00,2013-01-12 21:13:00,
2013-01-12 15:18:00,66.9,65.1,29.69,SSE,158,12.0,19.0,94,0.00,,RA,0.60,VWS V14.00,2013-01-12 21:18:00,
2013-01-12 15:28:00,67.4,65.0,29.69,South,172,12.0,18.0,92,0.00,,RA,0.60,VWS V14.00,2013-01-12 21:28:00,
2013-01-12 15:33:00,67.6,64.9,29.69,SSE,164,10.0,15.0,91,0.00,,-RA,0.60,VWS V14.00,2013-01-12 21:33:00,
2013-01-12 15:38:00,67.8,64.8,29.69,South,173,11.0,17.0,90,0.00,,-RA,0.60,VWS V14.00,2013-01-12 21:38:00,
2013-01-12 15:48:00,68.1,64.4,29.69,South,181,4.0,17.0,88,0.00,,-RA,0.60,VWS V14.00,2013-01-12 21:48:00,
2013-01-12 15:53:00,66.9,62.6,29.69,West,278,4.0,14.0,86,0.00,,-RA,0.60,VWS V14.00,2013-01-12 21:53:00,
2013-01-12 15:58:00,65.8,62.2,29.69,West,278,2.0,5.0,88,0.00,,-RA,0.60,VWS V14.00,2013-01-12 21:58:00,
2013-01-12 16:03:00,65.6,62.3,29.69,SW,217,0.0,5.0,89,0.00,,OVC036,0.60,VWS V14.00,2013-01-12 22:03:00,
2013-01-12 16:08:00,66.0,63.0,29.69,South,180,8.0,10.0,90,0.00,,OVC036,0.60,VWS V14.00,2013-01-12 22:08:00,
2013-01-12 16:18:00,67.9,64.5,29.69,SSE,163,7.0,19.0,89,0.00,,RA,0.60,VWS V14.00,2013-01-12 22:18:00,
2013-01-12 16:23:00,68.3,64.6,29.69,SSE,157,10.0,14.0,88,0.00,,RA,0.60,VWS V14.00,2013-01-12 22:23:00,
2013-01-12 16:28:00,68.4,64.1,29.69,SSE,161,12.0,14.0,86,0.00,,RA,0.60,VWS V14.00,2013-01-12 22:28:00,
2013-01-12 16:33:00,68.4,64.1,29.68,South,173,7.0,14.0,86,0.00,,OVC032,0.60,VWS V14.00,2013-01-12 22:33:00,
2013-01-12 16:38:00,68.4,64.1,29.68,SSE,167,10.0,13.0,86,0.00,,OVC032,0.60,VWS V14.00,2013-01-12 22:38:00,
2013-01-12 16:43:00,68.3,64.0,29.68,South,190,9.0,14.0,86,0.00,,OVC032,0.60,VWS V14.00,2013-01-12 22:43:00,
2013-01-12 16:48:00,68.3,64.0,29.67,SSE,165,10.0,11.0,86,0.00,,-RA,0.60,VWS V14.00,2013-01-12 22:48:00,
2013-01-12 16:53:00,68.1,63.8,29.67,SSE,166,9.0,12.0,86,0.00,,-RA,0.60,VWS V14.00,2013-01-12 22:53:00,
2013-01-12 17:03:00,67.6,63.3,29.67,SSW,192,5.0,11.0,86,0.00,,,0.60,VWS V14.00,2013-01-12 23:03:00,
2013-01-12 17:08:00,67.4,63.4,29.67,SSE,149,6.0,10.0,87,0.00,,,0.60,VWS V14.00,2013-01-12 23:08:00,
2013-01-12 17:18:00,67.4,63.1,29.67,SSE,151,9.0,12.0,86,0.00,,OVC025,0.60,VWS V14.00,2013-01-12 23:18:00,
2013-01-12 17:23:00,67.6,62.9,29.67,SSE,166,8.0,15.0,85,0.00,,OVC025,0.60,VWS V14.00,2013-01-12 23:23:00,
2013-01-12 17:28:00,67.8,62.8,29.67,SSE,150,10.0,16.0,84,0.00,,OVC025,0.60,VWS V14.00,2013-01-12 23:28:00,
2013-01-12 17:33:00,68.1,62.8,29.66,SSE,154,9.0,15.0,83,0.00,,-RA,0.60,VWS V14.00,2013-01-12 23:33:00,
2013-01-12 17:43:00,68.3,62.9,29.66,SSE,155,8.0,16.0,83,0.00,,-RA,0.60,VWS V14.00,2013-01-12 23:43:00,
2013-01-12 17:48:00,68.1,62.8,29.67,SE,138,10.0,15.0,83,0.00,,RA,0.60,VWS V14.00,2013-01-12 23:48:00,
2013-01-12 17:58:00,68.3,62.9,29.67,South,169,8.0,20.0,83,0.00,,RA,0.60,VWS V14.00,2013-01-12 23:58:00,
2013-01-12 18:03:00,68.1,62.8,29.67,SSE,155,8.0,14.0,83,0.00,,RA,0.60,VWS V14.00,2013-01-13 00:03:00,
2013-01-12 18:08:00,68.1,62.8,29.67,SSE,151,9.0,20.0,83,0.00,,RA,0.60,VWS V14.00,2013-01-13 00:08:00,
2013-01-12 18:18:00,68.3,62.9,29.66,SSE,166,13.0,16.0,83,0.00,,-RA,0.60,VWS V14.00,2013-01-13 00:18:00,
2013-01-12 18:23:00,68.3,62.9,29.66,SE,139,13.0,20.0,83,0.00,,-RA,0.60,VWS V14.00,2013-01-13 00:23:00,
2013-01-12 18:28:00,68.3,62.9,29.66,SSE,152,12.0,17.0,83,0.00,,-RA,0.60,VWS V14.00,2013-01-13 00:28:00,
2013-01-12 18:33:00,68.1,62.8,29.66,SSE,157,12.0,17.0,83,0.00,,-RA,0.60,VWS V14.00,2013-01-13 00:33:00,
2013-01-12 18:43:00,67.6,62.6,29.66,SE,146,10.0,17.0,84,0.00,,-RA,0.60,VWS V14.00,2013-01-13 00:43:00,
2013-01-12 18:53:00,67.4,62.7,29.64,SSE,151,9.0,16.0,85,0.00,,-RA,0.60,VWS V14.00,2013-01-13 00:53:00,
2013-01-12 18:58:00,67.4,62.7,29.64,SE,144,10.0,13.0,85,0.00,,-RA,0.60,VWS V14.00,2013-01-13 00:58:00,
2013-01-12 19:03:00,67.4,62.7,29.64,SSE,156,12.0,15.0,85,0.00,,-RA,0.60,VWS V14.00,2013-01-13 01:03:00,
2013-01-12 19:08:00,67.6,62.9,29.64,SE,135,8.0,16.0,85,0.00,,-RA,0.60,VWS V14.00,2013-01-13 01:08:00,
2013-01-12 19:13:00,67.8,62.8,29.64,ESE,122,16.0,16.0,84,0.00,,-RA,0.60,VWS V14.00,2013-01-13 01:13:00,
2013-01-12 19:18:00,67.8,62.8,29.63,SSE,163,10.0,16.0,84,0.00,,-RA,0.60,VWS V14.00,2013-01-13 01:18:00,
2013-01-12 19:28:00,68.1,62.8,29.63,SSE,163,11.0,19.0,83,0.00,,-RA,0.60,VWS V14.00,2013-01-13 01:28:00,
2013-01-12 19:38:00,68.3,62.9,29.62,SE,142,8.0,18.0,83,0.00,,OVC026,0.60,VWS V14.00,2013-01-13 01:38:00,
2013-01-12 19:43:00,68.3,62.9,29.62,SSE,152,9.0,19.0,83,0.00,,OVC026,0.60,VWS V14.00,2013-01-13 01:43:00,
2013-01-12 19:48:00,68.3,62.9,29.62,SSE,155,8.0,18.0,83,0.00,,-RA,0.60,VWS V14.00,2013-01-13 01:48:00,
2013-01-12 19:53:00,68.1,62.8,29.62,SSE,154,14.0,19.0,83,0.00,,-RA,0.60,VWS V14.00,2013-01-13 01:53:00,
2013-01-12 19:58:00,67.9,62.5,29.62,South,171,11.0,20.0,83,0.00,,-RA,0.60,VWS V14.00,2013-01-13 01:58:00,
2013-01-12 20:03:00,67.9,62.5,29.61,SE,134,15.0,19.0,83,0.00,, +RA,0.60,VWS V14.00,2013-01-13 02:03:00,
2013-01-12 20:13:00,67.9,62.5,29.61,SE,140,11.0,19.0,83,0.00,, +RA,0.60,VWS V14.00,2013-01-13 02:13:00,
2013-01-12 20:18:00,67.8,62.8,29.63,SE,138,15.0,20.0,84,0.01,,OVC026,0.61,VWS V14.00,2013-01-13 02:18:00,
2013-01-12 20:28:00,67.6,62.9,29.63,SSE,167,13.0,20.0,85,0.03,,OVC026,0.63,VWS V14.00,2013-01-13 02:28:00,
2013-01-12 20:33:00,67.6,62.9,29.62,SSE,167,11.0,18.0,85,0.03,,RA,0.63,VWS V14.00,2013-01-13 02:33:00,
2013-01-12 20:43:00,67.4,63.1,29.62,SSE,161,13.0,22.0,86,0.04,,RA,0.64,VWS V14.00,2013-01-13 02:43:00,
2013-01-12 20:48:00,67.3,63.0,29.61,SE,138,11.0,18.0,86,0.04,,RA,0.64,VWS V14.00,2013-01-13 02:48:00,
2013-01-12 20:53:00,67.6,62.9,29.61,South,173,12.0,16.0,85,0.04,,RA,0.64,VWS V14.00,2013-01-13 02:53:00,
2013-01-12 20:58:00,67.6,62.9,29.61,SE,130,11.0,17.0,85,0.04,,RA,0.64,VWS V14.00,2013-01-13 02:58:00,
2013-01-12 21:03:00,67.8,62.8,29.61,SSE,167,12.0,17.0,84,0.04,, +RA,0.64,VWS V14.00,2013-01-13 03:03:00,
2013-01-12 21:08:00,67.6,62.9,29.61,SSE,148,15.0,17.0,85,0.04,, +RA,0.64,VWS V14.00,2013-01-13 03:08:00,
2013-01-12 21:18:00,67.6,62.9,29.61,South,180,13.0,17.0,85,0.04,, +RA,0.64,VWS V14.00,2013-01-13 03:18:00,
2013-01-12 21:28:00,67.8,62.8,29.61,SSE,166,8.0,18.0,84,0.03,, +RA,0.65,VWS V14.00,2013-01-13 03:28:00,
2013-01-12 21:33:00,67.8,62.8,29.61,SSE,163,11.0,16.0,84,0.02,,RA,0.65,VWS V14.00,2013-01-13 03:33:00,
2013-01-12 21:38:00,67.8,62.8,29.61,SSE,150,12.0,19.0,84,0.02,,RA,0.65,VWS V14.00,2013-01-13 03:38:00,
2013-01-12 21:43:00,67.9,62.9,29.61,SSE,163,12.0,21.0,84,0.01,,RA,0.65,VWS V14.00,2013-01-13 03:43:00,
2013-01-12 21:48:00,67.8,62.8,29.61,SSE,157,13.0,16.0,84,0.01,, +RA,0.65,VWS V14.00,2013-01-13 03:48:00,
2013-01-12 21:58:00,67.9,62.9,29.61,WSW,246,9.0,19.0,84,0.01,, +RA,0.65,VWS V14.00,2013-01-13 03:58:00,
2013-01-12 22:03:00,64.7,58.4,29.64,WNW,290,5.0,15.0,80,0.01,,,0.65,VWS V14.00,2013-01-13 04:03:00,
2013-01-12 22:13:00,62.7,58.1,29.64,SW,230,7.0,9.0,85,0.02,,,0.66,VWS V14.00,2013-01-13 04:13:00,
2013-01-12 22:23:00,62.7,58.8,29.66,WSW,246,4.0,17.0,87,0.10,,,0.74,VWS V14.00,2013-01-13 04:23:00,
2013-01-12 22:28:00,62.6,59.0,29.66,West,268,8.0,15.0,88,0.12,,,0.76,VWS V14.00,2013-01-13 04:28:00,
2013-01-12 22:33:00,62.4,58.5,29.65,WSW,252,8.0,19.0,87,0.12,,RA,0.77,VWS V14.00,2013-01-13 04:33:00,
2013-01-12 22:43:00,61.8,58.5,29.65,West,269,9.0,12.0,89,0.14,,RA,0.79,VWS V14.00,2013-01-13 04:43:00,
2013-01-12 22:48:00,61.3,58.3,29.65,West,270,5.0,9.0,90,0.17,,RA,0.82,VWS V14.00,2013-01-13 04:48:00,
2013-01-12 22:53:00,61.0,58.0,29.65,West,277,5.0,8.0,90,0.20,,RA,0.85,VWS V14.00,2013-01-13 04:53:00,
2013-01-12 22:58:00,59.8,56.6,29.65,NW,314,14.0,15.0,89,0.25,,RA,0.90,VWS V14.00,2013-01-13 04:58:00,
2013-01-12 23:03:00,55.4,51.9,29.66,NW,307,11.0,19.0,88,0.26,,RA,0.91,VWS V14.00,2013-01-13 05:03:00,
2013-01-12 23:08:00,53.5,50.6,29.66,NNW,339,6.0,16.0,90,0.29,,RA,0.94,VWS V14.00,2013-01-13 05:08:00,
2013-01-12 23:13:00,52.6,49.8,29.66,NNW,327,5.0,14.0,90,0.31,,RA,0.96,VWS V14.00,2013-01-13 05:13:00,
2013-01-12 23:18:00,51.9,49.4,29.69,NNW,333,9.0,13.0,91,0.36,,RA,1.02,VWS V14.00,2013-01-13 05:18:00,
2013-01-12 23:23:00,50.7,48.2,29.69,NW,325,14.0,16.0,91,0.47,,RA,1.13,VWS V14.00,2013-01-13 05:23:00,
2013-01-12 23:28:00,49.6,47.1,29.69,NW,316,8.0,17.0,91,0.43,,RA,1.17,VWS V14.00,2013-01-13 05:28:00,
2013-01-12 23:33:00,48.8,46.3,29.69,NNW,338,7.0,15.0,91,0.42,,RA,1.18,VWS V14.00,2013-01-13 05:33:00,
2013-01-12 23:43:00,47.1,44.6,29.69,NNW,342,10.0,19.0,91,0.47,,RA,1.25,VWS V14.00,2013-01-13 05:43:00,
2013-01-12 23:48:00,46.4,43.9,29.71,NNW,342,9.0,17.0,91,0.54,,RA,1.33,VWS V14.00,2013-01-13 05:48:00,
2013-01-12 23:53:00,45.7,43.2,29.71,NW,321,11.0,19.0,91,0.53,,RA,1.35,VWS V14.00,2013-01-13 05:53:00,
2013-01-12 23:58:00,45.2,42.7,29.71,NW,324,9.0,22.0,91,0.56,,RA,1.41,VWS V14.00,2013-01-13 05:58:00,